sensor_id;sensor_type;location;lat;lon;timestamp;temperature;humidity
62583;DHT22;48641;51.676;5.808;2023-09-19T00:01:42;23.60;60.00
62583;DHT22;48641;51.676;5.808;2023-09-19T00:04:12;23.60;60.00
62583;DHT22;48641;51.676;5.808;2023-09-19T00:06:38;23.60;60.10
62583;DHT22;48641;51.676;5.808;2023-09-19T00:09:04;23.50;60.00
62583;DHT22;48641;51.676;5.808;2023-09-19T00:11:30;23.60;60.00
62583;DHT22;48641;51.676;5.808;2023-09-19T00:13:56;23.60;60.00
62583;DHT22;48641;51.676;5.808;2023-09-19T00:16:24;23.50;60.00
62583;DHT22;48641;51.676;5.808;2023-09-19T00:18:51;23.60;60.00
62583;DHT22;48641;51.676;5.808;2023-09-19T00:21:17;23.60;60.00
62583;DHT22;48641;51.676;5.808;2023-09-19T00:23:46;23.60;60.00
62583;DHT22;48641;51.676;5.808;2023-09-19T00:26:11;23.60;59.90
62583;DHT22;48641;51.676;5.808;2023-09-19T00:28:38;23.60;59.90
62583;DHT22;48641;51.676;5.808;2023-09-19T00:31:07;23.60;59.90
62583;DHT22;48641;51.676;5.808;2023-09-19T00:33:34;23.50;59.90
62583;DHT22;48641;51.676;5.808;2023-09-19T00:35:59;23.50;59.80
62583;DHT22;48641;51.676;5.808;2023-09-19T00:38:27;23.50;59.90
62583;DHT22;48641;51.676;5.808;2023-09-19T00:40:54;23.50;59.90
62583;DHT22;48641;51.676;5.808;2023-09-19T00:43:20;23.50;60.00
62583;DHT22;48641;51.676;5.808;2023-09-19T00:45:49;23.50;60.00
62583;DHT22;48641;51.676;5.808;2023-09-19T00:48:16;23.50;60.00
62583;DHT22;48641;51.676;5.808;2023-09-19T00:50:43;23.50;60.00
62583;DHT22;48641;51.676;5.808;2023-09-19T00:53:10;23.50;60.00
62583;DHT22;48641;51.676;5.808;2023-09-19T00:55:39;23.50;60.00
62583;DHT22;48641;51.676;5.808;2023-09-19T00:58:07;23.50;59.90
62583;DHT22;48641;51.676;5.808;2023-09-19T01:00:33;23.50;60.00
62583;DHT22;48641;51.676;5.808;2023-09-19T01:03:00;23.50;59.90
62583;DHT22;48641;51.676;5.808;2023-09-19T01:05:29;23.50;59.90
62583;DHT22;48641;51.676;5.808;2023-09-19T01:07:55;23.50;59.80
62583;DHT22;48641;51.676;5.808;2023-09-19T01:10:21;23.50;59.80
62583;DHT22;48641;51.676;5.808;2023-09-19T01:21:17;23.40;59.80
62583;DHT22;48641;51.676;5.808;2023-09-19T01:29:44;23.40;60.00
62583;DHT22;48641;51.676;5.808;2023-09-19T01:32:11;23.40;61.00
62583;DHT22;48641;51.676;5.808;2023-09-19T01:37:13;23.40;59.90
62583;DHT22;48641;51.676;5.808;2023-09-19T01:39:40;23.40;60.00
62583;DHT22;48641;51.676;5.808;2023-09-19T01:42:24;23.40;59.90
62583;DHT22;48641;51.676;5.808;2023-09-19T01:45:03;23.40;59.70
62583;DHT22;48641;51.676;5.808;2023-09-19T01:47:35;23.40;59.80
62583;DHT22;48641;51.676;5.808;2023-09-19T01:52:42;23.40;59.70
62583;DHT22;48641;51.676;5.808;2023-09-19T01:55:12;23.40;59.80
62583;DHT22;48641;51.676;5.808;2023-09-19T01:58:06;23.30;59.70
62583;DHT22;48641;51.676;5.808;2023-09-19T02:00:35;23.40;59.70
62583;DHT22;48641;51.676;5.808;2023-09-19T02:03:02;23.30;59.70
62583;DHT22;48641;51.676;5.808;2023-09-19T02:05:28;23.30;59.80
62583;DHT22;48641;51.676;5.808;2023-09-19T02:07:54;23.30;60.80
62583;DHT22;48641;51.676;5.808;2023-09-19T02:10:21;23.30;59.80
62583;DHT22;48641;51.676;5.808;2023-09-19T02:12:47;23.30;59.70
62583;DHT22;48641;51.676;5.808;2023-09-19T02:15:13;23.30;59.70
62583;DHT22;48641;51.676;5.808;2023-09-19T02:17:42;23.40;59.70
62583;DHT22;48641;51.676;5.808;2023-09-19T02:20:08;23.40;59.70
62583;DHT22;48641;51.676;5.808;2023-09-19T02:22:35;23.40;59.70
62583;DHT22;48641;51.676;5.808;2023-09-19T02:25:01;23.40;59.70
62583;DHT22;48641;51.676;5.808;2023-09-19T02:27:27;23.40;59.60
62583;DHT22;48641;51.676;5.808;2023-09-19T02:29:52;23.30;59.50
62583;DHT22;48641;51.676;5.808;2023-09-19T02:32:19;23.30;59.50
62583;DHT22;48641;51.676;5.808;2023-09-19T02:34:45;23.30;59.50
62583;DHT22;48641;51.676;5.808;2023-09-19T02:37:10;23.30;59.50
62583;DHT22;48641;51.676;5.808;2023-09-19T02:39:36;23.30;59.50
62583;DHT22;48641;51.676;5.808;2023-09-19T02:42:02;23.30;59.50
62583;DHT22;48641;51.676;5.808;2023-09-19T02:44:29;23.30;59.50
62583;DHT22;48641;51.676;5.808;2023-09-19T02:46:55;23.30;59.50
62583;DHT22;48641;51.676;5.808;2023-09-19T02:49:22;23.30;59.50
62583;DHT22;48641;51.676;5.808;2023-09-19T02:51:48;23.30;59.50
62583;DHT22;48641;51.676;5.808;2023-09-19T02:54:14;23.20;59.40
62583;DHT22;48641;51.676;5.808;2023-09-19T02:56:41;23.30;59.50
62583;DHT22;48641;51.676;5.808;2023-09-19T02:59:06;23.30;59.50
62583;DHT22;48641;51.676;5.808;2023-09-19T03:01:32;23.30;59.50
62583;DHT22;48641;51.676;5.808;2023-09-19T03:03:59;23.30;59.50
62583;DHT22;48641;51.676;5.808;2023-09-19T03:06:24;23.20;59.40
62583;DHT22;48641;51.676;5.808;2023-09-19T03:08:50;23.20;59.30
62583;DHT22;48641;51.676;5.808;2023-09-19T03:11:17;23.20;59.40
62583;DHT22;48641;51.676;5.808;2023-09-19T03:13:51;23.20;60.30
62583;DHT22;48641;51.676;5.808;2023-09-19T03:16:17;23.20;59.30
62583;DHT22;48641;51.676;5.808;2023-09-19T03:18:44;23.20;59.40
62583;DHT22;48641;51.676;5.808;2023-09-19T03:21:10;23.20;59.40
62583;DHT22;48641;51.676;5.808;2023-09-19T03:23:36;23.20;59.40
62583;DHT22;48641;51.676;5.808;2023-09-19T03:26:01;23.20;59.30
62583;DHT22;48641;51.676;5.808;2023-09-19T03:28:27;23.20;59.40
62583;DHT22;48641;51.676;5.808;2023-09-19T03:31:04;23.20;59.30
62583;DHT22;48641;51.676;5.808;2023-09-19T03:33:29;23.20;59.30
62583;DHT22;48641;51.676;5.808;2023-09-19T03:35:59;23.20;59.30
62583;DHT22;48641;51.676;5.808;2023-09-19T03:38:28;23.20;59.40
62583;DHT22;48641;51.676;5.808;2023-09-19T03:40:54;23.20;59.30
62583;DHT22;48641;51.676;5.808;2023-09-19T03:43:20;23.20;59.30
62583;DHT22;48641;51.676;5.808;2023-09-19T03:45:46;23.20;59.30
62583;DHT22;48641;51.676;5.808;2023-09-19T03:48:16;23.10;59.30
62583;DHT22;48641;51.676;5.808;2023-09-19T03:50:42;23.10;59.30
62583;DHT22;48641;51.676;5.808;2023-09-19T03:53:09;23.10;59.30
62583;DHT22;48641;51.676;5.808;2023-09-19T03:55:35;23.10;59.30
62583;DHT22;48641;51.676;5.808;2023-09-19T03:58:04;23.10;59.30
62583;DHT22;48641;51.676;5.808;2023-09-19T04:00:30;23.10;59.20
62583;DHT22;48641;51.676;5.808;2023-09-19T04:02:55;23.10;59.20
62583;DHT22;48641;51.676;5.808;2023-09-19T04:05:22;23.10;59.20
62583;DHT22;48641;51.676;5.808;2023-09-19T04:07:48;23.10;59.20
62583;DHT22;48641;51.676;5.808;2023-09-19T04:10:14;23.10;59.10
62583;DHT22;48641;51.676;5.808;2023-09-19T04:12:40;23.10;59.10
62583;DHT22;48641;51.676;5.808;2023-09-19T04:15:06;23.10;59.10
62583;DHT22;48641;51.676;5.808;2023-09-19T04:17:32;23.10;59.20
62583;DHT22;48641;51.676;5.808;2023-09-19T04:19:59;23.10;59.20
62583;DHT22;48641;51.676;5.808;2023-09-19T04:22:24;23.10;59.20
62583;DHT22;48641;51.676;5.808;2023-09-19T04:24:50;23.10;59.10
62583;DHT22;48641;51.676;5.808;2023-09-19T04:27:16;23.10;59.10
62583;DHT22;48641;51.676;5.808;2023-09-19T04:29:41;23.10;59.20
62583;DHT22;48641;51.676;5.808;2023-09-19T04:32:07;23.10;59.20
62583;DHT22;48641;51.676;5.808;2023-09-19T04:34:36;23.10;59.10
62583;DHT22;48641;51.676;5.808;2023-09-19T04:37:03;23.10;59.10
62583;DHT22;48641;51.676;5.808;2023-09-19T04:39:29;23.10;59.20
62583;DHT22;48641;51.676;5.808;2023-09-19T04:41:55;23.10;59.10
62583;DHT22;48641;51.676;5.808;2023-09-19T04:44:20;23.00;59.10
62583;DHT22;48641;51.676;5.808;2023-09-19T04:46:46;23.00;59.10
62583;DHT22;48641;51.676;5.808;2023-09-19T04:49:12;23.00;59.10
62583;DHT22;48641;51.676;5.808;2023-09-19T04:51:38;23.00;59.10
62583;DHT22;48641;51.676;5.808;2023-09-19T04:54:05;23.00;59.00
62583;DHT22;48641;51.676;5.808;2023-09-19T04:56:31;23.00;59.10
62583;DHT22;48641;51.676;5.808;2023-09-19T04:58:58;23.00;59.20
62583;DHT22;48641;51.676;5.808;2023-09-19T05:01:24;23.00;59.10
62583;DHT22;48641;51.676;5.808;2023-09-19T05:03:50;23.00;59.10
62583;DHT22;48641;51.676;5.808;2023-09-19T05:06:21;23.00;59.10
62583;DHT22;48641;51.676;5.808;2023-09-19T05:08:50;23.00;59.10
62583;DHT22;48641;51.676;5.808;2023-09-19T05:11:20;23.00;59.20
62583;DHT22;48641;51.676;5.808;2023-09-19T05:13:47;22.90;59.30
62583;DHT22;48641;51.676;5.808;2023-09-19T05:16:12;22.90;59.40
62583;DHT22;48641;51.676;5.808;2023-09-19T05:18:38;22.90;59.30
62583;DHT22;48641;51.676;5.808;2023-09-19T05:21:04;22.90;59.20
62583;DHT22;48641;51.676;5.808;2023-09-19T05:23:29;22.90;59.20
62583;DHT22;48641;51.676;5.808;2023-09-19T05:25:56;22.90;59.20
62583;DHT22;48641;51.676;5.808;2023-09-19T05:28:25;22.90;59.20
62583;DHT22;48641;51.676;5.808;2023-09-19T05:30:51;22.90;60.10
62583;DHT22;48641;51.676;5.808;2023-09-19T05:33:16;22.90;59.20
62583;DHT22;48641;51.676;5.808;2023-09-19T05:35:48;22.90;59.20
62583;DHT22;48641;51.676;5.808;2023-09-19T05:38:14;22.90;59.00
62583;DHT22;48641;51.676;5.808;2023-09-19T05:40:44;22.90;59.10
62583;DHT22;48641;51.676;5.808;2023-09-19T05:43:10;22.90;58.90
62583;DHT22;48641;51.676;5.808;2023-09-19T05:45:36;22.90;59.00
62583;DHT22;48641;51.676;5.808;2023-09-19T05:48:12;22.90;58.90
62583;DHT22;48641;51.676;5.808;2023-09-19T05:50:42;22.90;58.80
62583;DHT22;48641;51.676;5.808;2023-09-19T05:53:08;22.90;58.90
62583;DHT22;48641;51.676;5.808;2023-09-19T05:55:37;22.90;58.80
62583;DHT22;48641;51.676;5.808;2023-09-19T05:58:03;22.90;58.80
62583;DHT22;48641;51.676;5.808;2023-09-19T06:00:29;22.90;58.80
62583;DHT22;48641;51.676;5.808;2023-09-19T06:02:58;22.90;58.80
62583;DHT22;48641;51.676;5.808;2023-09-19T06:05:25;22.90;58.80
62583;DHT22;48641;51.676;5.808;2023-09-19T06:07:52;22.90;58.80
62583;DHT22;48641;51.676;5.808;2023-09-19T06:10:19;22.80;58.70
62583;DHT22;48641;51.676;5.808;2023-09-19T06:12:46;22.90;58.80
62583;DHT22;48641;51.676;5.808;2023-09-19T06:15:14;22.80;58.70
62583;DHT22;48641;51.676;5.808;2023-09-19T06:17:49;22.80;58.70
62583;DHT22;48641;51.676;5.808;2023-09-19T06:20:15;22.80;58.70
62583;DHT22;48641;51.676;5.808;2023-09-19T06:22:43;22.80;58.80
62583;DHT22;48641;51.676;5.808;2023-09-19T06:25:11;22.80;58.70
62583;DHT22;48641;51.676;5.808;2023-09-19T06:27:40;22.80;58.80
62583;DHT22;48641;51.676;5.808;2023-09-19T06:30:11;22.80;58.80
62583;DHT22;48641;51.676;5.808;2023-09-19T06:32:37;22.80;58.70
62583;DHT22;48641;51.676;5.808;2023-09-19T06:35:03;22.80;58.70
62583;DHT22;48641;51.676;5.808;2023-09-19T06:37:32;22.80;59.70
62583;DHT22;48641;51.676;5.808;2023-09-19T06:40:00;22.80;58.70
62583;DHT22;48641;51.676;5.808;2023-09-19T06:42:25;22.80;58.70
62583;DHT22;48641;51.676;5.808;2023-09-19T06:44:52;22.80;58.70
62583;DHT22;48641;51.676;5.808;2023-09-19T06:47:18;22.80;58.60
62583;DHT22;48641;51.676;5.808;2023-09-19T06:49:44;22.80;58.60
62583;DHT22;48641;51.676;5.808;2023-09-19T06:52:10;22.80;58.70
62583;DHT22;48641;51.676;5.808;2023-09-19T06:54:36;22.80;58.70
62583;DHT22;48641;51.676;5.808;2023-09-19T06:57:01;22.70;58.70
62583;DHT22;48641;51.676;5.808;2023-09-19T06:59:28;22.80;58.70
62583;DHT22;48641;51.676;5.808;2023-09-19T07:01:54;22.70;58.70
62583;DHT22;48641;51.676;5.808;2023-09-19T07:04:19;22.70;58.70
62583;DHT22;48641;51.676;5.808;2023-09-19T07:06:52;22.80;58.70
62583;DHT22;48641;51.676;5.808;2023-09-19T07:09:18;22.80;58.70
62583;DHT22;48641;51.676;5.808;2023-09-19T07:11:47;22.80;58.70
62583;DHT22;48641;51.676;5.808;2023-09-19T07:14:13;22.80;58.70
62583;DHT22;48641;51.676;5.808;2023-09-19T07:16:39;22.80;58.70
62583;DHT22;48641;51.676;5.808;2023-09-19T07:19:08;22.70;58.70
62583;DHT22;48641;51.676;5.808;2023-09-19T07:21:33;22.70;58.60
62583;DHT22;48641;51.676;5.808;2023-09-19T07:24:00;22.70;58.60
62583;DHT22;48641;51.676;5.808;2023-09-19T07:26:26;22.70;58.60
62583;DHT22;48641;51.676;5.808;2023-09-19T07:28:53;22.70;58.70
62583;DHT22;48641;51.676;5.808;2023-09-19T07:31:19;22.70;58.70
62583;DHT22;48641;51.676;5.808;2023-09-19T07:33:45;22.70;58.60
62583;DHT22;48641;51.676;5.808;2023-09-19T07:36:11;22.70;58.60
62583;DHT22;48641;51.676;5.808;2023-09-19T07:38:39;22.70;58.70
62583;DHT22;48641;51.676;5.808;2023-09-19T07:41:05;22.60;58.60
62583;DHT22;48641;51.676;5.808;2023-09-19T07:43:31;22.60;58.60
62583;DHT22;48641;51.676;5.808;2023-09-19T07:45:57;22.70;58.70
62583;DHT22;48641;51.676;5.808;2023-09-19T07:48:22;22.70;58.70
62583;DHT22;48641;51.676;5.808;2023-09-19T07:50:50;22.70;58.70
62583;DHT22;48641;51.676;5.808;2023-09-19T07:53:16;22.70;58.70
62583;DHT22;48641;51.676;5.808;2023-09-19T07:55:42;22.70;58.70
62583;DHT22;48641;51.676;5.808;2023-09-19T07:58:13;22.70;58.60
62583;DHT22;48641;51.676;5.808;2023-09-19T08:00:41;22.60;58.50
62583;DHT22;48641;51.676;5.808;2023-09-19T08:03:07;22.70;58.50
62583;DHT22;48641;51.676;5.808;2023-09-19T08:05:34;22.60;58.50
62583;DHT22;48641;51.676;5.808;2023-09-19T08:07:59;22.70;58.60
62583;DHT22;48641;51.676;5.808;2023-09-19T08:10:26;22.60;58.60
62583;DHT22;48641;51.676;5.808;2023-09-19T08:12:53;22.60;58.60
62583;DHT22;48641;51.676;5.808;2023-09-19T08:15:23;22.60;58.60
62583;DHT22;48641;51.676;5.808;2023-09-19T08:17:49;22.60;58.60
62583;DHT22;48641;51.676;5.808;2023-09-19T08:20:15;22.60;58.50
62583;DHT22;48641;51.676;5.808;2023-09-19T08:22:48;22.60;58.60
62583;DHT22;48641;51.676;5.808;2023-09-19T08:25:17;22.60;58.60
62583;DHT22;48641;51.676;5.808;2023-09-19T08:27:44;22.70;58.70
62583;DHT22;48641;51.676;5.808;2023-09-19T08:30:14;22.60;58.80
62583;DHT22;48641;51.676;5.808;2023-09-19T08:32:40;22.50;58.90
62583;DHT22;48641;51.676;5.808;2023-09-19T08:35:08;22.50;58.80
62583;DHT22;48641;51.676;5.808;2023-09-19T08:37:35;22.60;58.90
62583;DHT22;48641;51.676;5.808;2023-09-19T08:40:00;22.50;58.70
62583;DHT22;48641;51.676;5.808;2023-09-19T08:42:26;22.60;58.70
62583;DHT22;48641;51.676;5.808;2023-09-19T08:44:52;22.50;58.70
62583;DHT22;48641;51.676;5.808;2023-09-19T08:47:30;22.60;58.70
62583;DHT22;48641;51.676;5.808;2023-09-19T08:50:12;22.60;58.60
62583;DHT22;48641;51.676;5.808;2023-09-19T08:52:43;22.50;58.50
62583;DHT22;48641;51.676;5.808;2023-09-19T08:55:13;22.50;58.70
62583;DHT22;48641;51.676;5.808;2023-09-19T08:57:39;22.50;58.60
62583;DHT22;48641;51.676;5.808;2023-09-19T09:00:08;22.50;58.60
62583;DHT22;48641;51.676;5.808;2023-09-19T09:02:38;22.50;58.70
62583;DHT22;48641;51.676;5.808;2023-09-19T09:05:10;22.40;58.90
62583;DHT22;48641;51.676;5.808;2023-09-19T09:07:37;22.50;58.90
62583;DHT22;48641;51.676;5.808;2023-09-19T09:10:03;22.50;59.00
62583;DHT22;48641;51.676;5.808;2023-09-19T09:12:29;22.50;58.90
62583;DHT22;48641;51.676;5.808;2023-09-19T09:14:55;22.50;58.80
62583;DHT22;48641;51.676;5.808;2023-09-19T09:17:23;22.50;58.70
62583;DHT22;48641;51.676;5.808;2023-09-19T09:19:52;22.50;58.70
62583;DHT22;48641;51.676;5.808;2023-09-19T09:22:18;22.50;58.60
62583;DHT22;48641;51.676;5.808;2023-09-19T09:27:27;22.50;58.70
62583;DHT22;48641;51.676;5.808;2023-09-19T09:29:53;22.50;58.70
62583;DHT22;48641;51.676;5.808;2023-09-19T09:32:25;22.50;58.70
62583;DHT22;48641;51.676;5.808;2023-09-19T09:34:55;22.50;58.70
62583;DHT22;48641;51.676;5.808;2023-09-19T09:37:22;22.50;58.70
62583;DHT22;48641;51.676;5.808;2023-09-19T09:39:51;22.50;58.70
62583;DHT22;48641;51.676;5.808;2023-09-19T09:42:38;22.50;58.70
62583;DHT22;48641;51.676;5.808;2023-09-19T09:45:17;22.50;58.60
62583;DHT22;48641;51.676;5.808;2023-09-19T09:47:48;22.50;58.70
62583;DHT22;48641;51.676;5.808;2023-09-19T09:50:32;22.50;58.80
62583;DHT22;48641;51.676;5.808;2023-09-19T09:53:29;22.50;58.80
62583;DHT22;48641;51.676;5.808;2023-09-19T09:58:23;22.50;58.70
62583;DHT22;48641;51.676;5.808;2023-09-19T10:00:55;22.50;58.70
62583;DHT22;48641;51.676;5.808;2023-09-19T10:03:34;22.50;58.70
62583;DHT22;48641;51.676;5.808;2023-09-19T10:06:07;22.50;58.50
62583;DHT22;48641;51.676;5.808;2023-09-19T10:09:17;22.50;58.70
62583;DHT22;48641;51.676;5.808;2023-09-19T10:12:02;22.50;58.50
62583;DHT22;48641;51.676;5.808;2023-09-19T10:14:32;22.50;58.70
62583;DHT22;48641;51.676;5.808;2023-09-19T10:17:06;22.50;58.60
62583;DHT22;48641;51.676;5.808;2023-09-19T10:19:46;22.50;58.80
62583;DHT22;48641;51.676;5.808;2023-09-19T10:22:17;22.50;58.70
62583;DHT22;48641;51.676;5.808;2023-09-19T10:24:49;22.50;58.80
62583;DHT22;48641;51.676;5.808;2023-09-19T10:27:19;22.50;58.70
62583;DHT22;48641;51.676;5.808;2023-09-19T10:29:49;22.50;58.70
62583;DHT22;48641;51.676;5.808;2023-09-19T10:32:21;22.50;58.70
62583;DHT22;48641;51.676;5.808;2023-09-19T10:34:47;22.50;58.70
62583;DHT22;48641;51.676;5.808;2023-09-19T10:37:16;22.50;58.60
62583;DHT22;48641;51.676;5.808;2023-09-19T10:39:48;22.50;58.50
62583;DHT22;48641;51.676;5.808;2023-09-19T10:42:19;22.50;58.50
62583;DHT22;48641;51.676;5.808;2023-09-19T10:44:47;22.60;58.50
62583;DHT22;48641;51.676;5.808;2023-09-19T10:47:17;22.60;58.60
62583;DHT22;48641;51.676;5.808;2023-09-19T10:49:45;22.50;58.60
62583;DHT22;48641;51.676;5.808;2023-09-19T10:52:21;22.60;58.60
62583;DHT22;48641;51.676;5.808;2023-09-19T10:54:51;22.50;58.40
62583;DHT22;48641;51.676;5.808;2023-09-19T10:57:21;22.50;58.50
62583;DHT22;48641;51.676;5.808;2023-09-19T11:00:06;22.50;58.40
62583;DHT22;48641;51.676;5.808;2023-09-19T11:05:40;22.60;58.40
62583;DHT22;48641;51.676;5.808;2023-09-19T11:08:10;22.50;58.50
62583;DHT22;48641;51.676;5.808;2023-09-19T11:10:51;22.60;58.50
62583;DHT22;48641;51.676;5.808;2023-09-19T11:13:27;22.60;58.40
62583;DHT22;48641;51.676;5.808;2023-09-19T11:26:43;22.60;58.40
62583;DHT22;48641;51.676;5.808;2023-09-19T11:29:25;22.60;58.30
62583;DHT22;48641;51.676;5.808;2023-09-19T11:31:51;22.70;59.30
62583;DHT22;48641;51.676;5.808;2023-09-19T11:39:39;22.70;58.50
62583;DHT22;48641;51.676;5.808;2023-09-19T11:42:44;22.70;58.50
62583;DHT22;48641;51.676;5.808;2023-09-19T11:48:15;22.70;58.50
62583;DHT22;48641;51.676;5.808;2023-09-19T11:50:45;22.70;58.60
62583;DHT22;48641;51.676;5.808;2023-09-19T11:53:14;22.70;58.60
62583;DHT22;48641;51.676;5.808;2023-09-19T11:55:41;22.80;58.60
62583;DHT22;48641;51.676;5.808;2023-09-19T11:58:17;22.80;58.60
62583;DHT22;48641;51.676;5.808;2023-09-19T12:00:45;22.80;58.60
62583;DHT22;48641;51.676;5.808;2023-09-19T12:03:11;22.80;58.60
62583;DHT22;48641;51.676;5.808;2023-09-19T12:05:39;22.80;58.50
62583;DHT22;48641;51.676;5.808;2023-09-19T12:08:05;22.80;58.40
62583;DHT22;48641;51.676;5.808;2023-09-19T12:10:50;22.90;58.50
62583;DHT22;48641;51.676;5.808;2023-09-19T12:13:19;22.90;58.50
62583;DHT22;48641;51.676;5.808;2023-09-19T12:15:46;22.90;58.50
62583;DHT22;48641;51.676;5.808;2023-09-19T12:18:29;22.90;58.50
62583;DHT22;48641;51.676;5.808;2023-09-19T12:20:55;22.90;58.30
62583;DHT22;48641;51.676;5.808;2023-09-19T12:23:23;22.90;58.50
62583;DHT22;48641;51.676;5.808;2023-09-19T12:25:48;22.90;58.50
62583;DHT22;48641;51.676;5.808;2023-09-19T12:28:18;22.90;58.50
62583;DHT22;48641;51.676;5.808;2023-09-19T12:30:43;22.90;58.50
62583;DHT22;48641;51.676;5.808;2023-09-19T12:33:19;22.90;58.50
62583;DHT22;48641;51.676;5.808;2023-09-19T12:35:46;23.00;58.50
62583;DHT22;48641;51.676;5.808;2023-09-19T12:38:23;22.90;58.50
62583;DHT22;48641;51.676;5.808;2023-09-19T12:40:50;23.00;58.50
62583;DHT22;48641;51.676;5.808;2023-09-19T12:43:17;23.00;58.60
62583;DHT22;48641;51.676;5.808;2023-09-19T12:45:43;23.00;58.50
62583;DHT22;48641;51.676;5.808;2023-09-19T12:48:20;23.00;58.50
62583;DHT22;48641;51.676;5.808;2023-09-19T12:51:05;23.00;58.40
62583;DHT22;48641;51.676;5.808;2023-09-19T12:53:33;23.00;58.30
62583;DHT22;48641;51.676;5.808;2023-09-19T12:56:01;23.00;58.40
62583;DHT22;48641;51.676;5.808;2023-09-19T12:58:27;23.00;58.40
62583;DHT22;48641;51.676;5.808;2023-09-19T13:00:56;23.00;58.30
62583;DHT22;48641;51.676;5.808;2023-09-19T13:05:49;23.00;58.30
62583;DHT22;48641;51.676;5.808;2023-09-19T13:08:24;23.00;58.30
62583;DHT22;48641;51.676;5.808;2023-09-19T13:11:05;23.00;58.30
62583;DHT22;48641;51.676;5.808;2023-09-19T13:14:28;23.00;58.30
62583;DHT22;48641;51.676;5.808;2023-09-19T13:16:59;22.90;58.30
62583;DHT22;48641;51.676;5.808;2023-09-19T13:19:42;22.90;58.40
62583;DHT22;48641;51.676;5.808;2023-09-19T13:25:01;22.90;58.60
62583;DHT22;48641;51.676;5.808;2023-09-19T13:27:29;22.90;58.60
62583;DHT22;48641;51.676;5.808;2023-09-19T13:29:55;22.90;58.60
62583;DHT22;48641;51.676;5.808;2023-09-19T13:32:20;22.90;58.60
62583;DHT22;48641;51.676;5.808;2023-09-19T13:34:46;22.90;58.60
62583;DHT22;48641;51.676;5.808;2023-09-19T13:37:11;22.90;58.50
62583;DHT22;48641;51.676;5.808;2023-09-19T13:39:38;22.90;58.50
62583;DHT22;48641;51.676;5.808;2023-09-19T13:42:08;22.90;58.30
62583;DHT22;48641;51.676;5.808;2023-09-19T13:44:37;22.90;58.20
62583;DHT22;48641;51.676;5.808;2023-09-19T13:47:03;22.90;58.10
62583;DHT22;48641;51.676;5.808;2023-09-19T13:49:35;22.90;58.10
62583;DHT22;48641;51.676;5.808;2023-09-19T13:52:01;22.90;58.20
62583;DHT22;48641;51.676;5.808;2023-09-19T13:54:29;22.90;58.10
62583;DHT22;48641;51.676;5.808;2023-09-19T13:56:55;22.90;58.10
62583;DHT22;48641;51.676;5.808;2023-09-19T13:59:20;22.80;59.00
62583;DHT22;48641;51.676;5.808;2023-09-19T14:01:49;22.90;58.10
62583;DHT22;48641;51.676;5.808;2023-09-19T14:04:14;22.90;58.10
62583;DHT22;48641;51.676;5.808;2023-09-19T14:06:42;22.90;58.00
62583;DHT22;48641;51.676;5.808;2023-09-19T14:09:08;22.90;57.90
62583;DHT22;48641;51.676;5.808;2023-09-19T14:11:34;22.90;57.90
62583;DHT22;48641;51.676;5.808;2023-09-19T14:14:00;22.90;57.90
62583;DHT22;48641;51.676;5.808;2023-09-19T14:16:26;22.90;57.90
62583;DHT22;48641;51.676;5.808;2023-09-19T14:18:55;22.90;57.90
62583;DHT22;48641;51.676;5.808;2023-09-19T14:21:21;22.90;57.60
62583;DHT22;48641;51.676;5.808;2023-09-19T14:23:46;22.90;57.50
62583;DHT22;48641;51.676;5.808;2023-09-19T14:26:13;22.90;57.50
62583;DHT22;48641;51.676;5.808;2023-09-19T14:28:39;22.90;57.50
62583;DHT22;48641;51.676;5.808;2023-09-19T14:31:06;22.90;57.60
62583;DHT22;48641;51.676;5.808;2023-09-19T14:33:32;22.80;57.50
62583;DHT22;48641;51.676;5.808;2023-09-19T14:35:58;22.80;57.60
62583;DHT22;48641;51.676;5.808;2023-09-19T14:38:23;22.80;57.60
62583;DHT22;48641;51.676;5.808;2023-09-19T14:40:49;22.90;57.70
62583;DHT22;48641;51.676;5.808;2023-09-19T14:43:23;22.90;57.80
62583;DHT22;48641;51.676;5.808;2023-09-19T14:45:49;22.90;57.90
62583;DHT22;48641;51.676;5.808;2023-09-19T14:48:14;22.80;57.90
62583;DHT22;48641;51.676;5.808;2023-09-19T14:50:40;22.90;57.90
62583;DHT22;48641;51.676;5.808;2023-09-19T14:53:06;22.90;57.90
62583;DHT22;48641;51.676;5.808;2023-09-19T14:55:37;22.90;57.40
62583;DHT22;48641;51.676;5.808;2023-09-19T14:58:06;22.90;56.90
62583;DHT22;48641;51.676;5.808;2023-09-19T15:00:33;22.90;56.70
62583;DHT22;48641;51.676;5.808;2023-09-19T15:02:59;22.90;57.00
62583;DHT22;48641;51.676;5.808;2023-09-19T15:05:25;22.80;56.70
62583;DHT22;48641;51.676;5.808;2023-09-19T15:07:51;22.80;56.70
62583;DHT22;48641;51.676;5.808;2023-09-19T15:10:16;22.80;56.40
62583;DHT22;48641;51.676;5.808;2023-09-19T15:12:43;22.80;56.20
62583;DHT22;48641;51.676;5.808;2023-09-19T15:15:09;22.80;56.30
62583;DHT22;48641;51.676;5.808;2023-09-19T15:17:36;22.80;56.30
62583;DHT22;48641;51.676;5.808;2023-09-19T15:20:02;22.80;56.30
62583;DHT22;48641;51.676;5.808;2023-09-19T15:22:32;22.80;56.30
62583;DHT22;48641;51.676;5.808;2023-09-19T15:24:58;22.80;56.30
62583;DHT22;48641;51.676;5.808;2023-09-19T15:27:24;22.70;56.10
62583;DHT22;48641;51.676;5.808;2023-09-19T15:29:50;22.70;56.20
62583;DHT22;48641;51.676;5.808;2023-09-19T15:32:16;22.80;56.40
62583;DHT22;48641;51.676;5.808;2023-09-19T15:34:41;22.70;57.20
62583;DHT22;48641;51.676;5.808;2023-09-19T15:37:07;22.70;56.10
62583;DHT22;48641;51.676;5.808;2023-09-19T15:39:32;22.70;56.10
62583;DHT22;48641;51.676;5.808;2023-09-19T15:42:02;22.70;56.10
62583;DHT22;48641;51.676;5.808;2023-09-19T15:44:28;22.70;56.30
62583;DHT22;48641;51.676;5.808;2023-09-19T15:46:54;22.70;56.30
62583;DHT22;48641;51.676;5.808;2023-09-19T15:49:19;22.70;56.40
62583;DHT22;48641;51.676;5.808;2023-09-19T15:51:46;22.70;56.30
62583;DHT22;48641;51.676;5.808;2023-09-19T15:54:13;22.70;56.20
62583;DHT22;48641;51.676;5.808;2023-09-19T15:56:43;22.70;56.10
62583;DHT22;48641;51.676;5.808;2023-09-19T15:59:09;22.70;56.20
62583;DHT22;48641;51.676;5.808;2023-09-19T16:01:38;22.70;56.10
62583;DHT22;48641;51.676;5.808;2023-09-19T16:04:06;22.70;56.30
62583;DHT22;48641;51.676;5.808;2023-09-19T16:06:34;22.70;56.30
62583;DHT22;48641;51.676;5.808;2023-09-19T16:09:01;22.60;56.40
62583;DHT22;48641;51.676;5.808;2023-09-19T16:11:30;22.70;56.30
62583;DHT22;48641;51.676;5.808;2023-09-19T16:13:57;22.60;56.20
62583;DHT22;48641;51.676;5.808;2023-09-19T16:16:23;22.60;56.20
62583;DHT22;48641;51.676;5.808;2023-09-19T16:18:49;22.60;56.20
62583;DHT22;48641;51.676;5.808;2023-09-19T16:21:16;22.60;56.30
62583;DHT22;48641;51.676;5.808;2023-09-19T16:23:47;22.60;56.30
62583;DHT22;48641;51.676;5.808;2023-09-19T16:26:13;22.60;56.20
62583;DHT22;48641;51.676;5.808;2023-09-19T16:28:40;22.60;56.30
62583;DHT22;48641;51.676;5.808;2023-09-19T16:31:07;22.60;56.10